createdAt,value
2018-12-17T00:01:56.088Z,78.72
2018-12-17T00:04:27.581Z,78.68
2018-12-17T00:06:58.906Z,79.07
2018-12-17T00:09:27.995Z,78.04
2018-12-17T00:11:57.109Z,78.03
2018-12-17T00:14:26.162Z,78.55
2018-12-17T00:16:55.766Z,77.96
2018-12-17T00:19:24.823Z,77.80
2018-12-17T00:21:54.302Z,78.91
2018-12-17T00:24:23.686Z,78.05
2018-12-17T00:26:52.683Z,78.14
2018-12-17T00:29:22.502Z,76.96
2018-12-17T00:31:51.662Z,77.19
2018-12-17T00:34:20.684Z,78.02
2018-12-17T00:36:50.094Z,78.04
2018-12-17T00:39:19.109Z,77.56
2018-12-17T00:41:48.163Z,77.54
2018-12-17T00:44:18.205Z,77.89
2018-12-17T00:46:47.226Z,77.46
2018-12-17T00:49:16.276Z,78.11
2018-12-17T00:51:45.795Z,77.92
2018-12-17T00:54:15.191Z,77.40
2018-12-17T00:56:44.211Z,77.53
2018-12-17T00:59:13.512Z,77.90
2018-12-17T01:01:42.553Z,77.79
2018-12-17T01:04:12.603Z,78.48
2018-12-17T01:06:41.629Z,77.69
2018-12-17T01:09:10.794Z,78.50
2018-12-17T01:11:40.472Z,78.33
2018-12-17T01:14:09.811Z,77.66
2018-12-17T01:16:39.805Z,77.92
2018-12-17T01:19:08.844Z,78.12
2018-12-17T01:21:38.418Z,78.07
2018-12-17T01:24:07.569Z,77.53
2018-12-17T01:26:36.566Z,77.63
2018-12-17T01:29:06.130Z,78.33
2018-12-17T01:31:35.960Z,77.67
2018-12-17T01:34:05.233Z,78.50
2018-12-17T01:36:34.730Z,77.61
2018-12-17T01:39:05.507Z,77.59
2018-12-17T01:41:34.867Z,77.76
2018-12-17T01:44:03.914Z,78.45
2018-12-17T01:46:32.957Z,78.23
2018-12-17T01:49:02.317Z,77.80
2018-12-17T01:51:31.417Z,78.14
2018-12-17T01:54:00.442Z,78.17
2018-12-17T01:56:29.549Z,78.59
2018-12-17T01:58:59.142Z,78.59
2018-12-17T02:01:28.301Z,78.77
2018-12-17T02:03:58.195Z,78.69
2018-12-17T02:06:27.262Z,77.94
2018-12-17T02:08:56.342Z,78.68
2018-12-17T02:11:25.751Z,78.46
2018-12-17T02:13:55.474Z,78.99
2018-12-17T02:16:24.506Z,78.93
2018-12-17T02:18:54.054Z,78.47
2018-12-17T02:21:23.149Z,77.74
2018-12-17T02:23:53.870Z,78.98
2018-12-17T02:26:22.969Z,78.17
2018-12-17T02:28:52.002Z,78.12
2018-12-17T02:31:21.406Z,78.16
2018-12-17T02:33:50.435Z,77.62
2018-12-17T02:36:19.584Z,77.46
2018-12-17T02:38:48.917Z,77.32
2018-12-17T02:41:18.178Z,77.17
2018-12-17T02:43:47.699Z,77.47
2018-12-17T02:46:17.083Z,78.13
2018-12-17T02:48:46.277Z,77.86
2018-12-17T02:51:15.366Z,77.80
2018-12-17T02:53:45.792Z,78.25
2018-12-17T02:56:14.982Z,77.28
2018-12-17T02:58:44.301Z,77.58
2018-12-17T03:01:14.142Z,77.73
2018-12-17T03:03:43.297Z,77.67
2018-12-17T03:06:12.433Z,77.12
2018-12-17T03:08:41.768Z,78.11
2018-12-17T03:11:10.884Z,78.06
2018-12-17T03:13:39.902Z,76.61
2018-12-17T03:16:09.632Z,76.98
2018-12-17T03:18:38.816Z,77.09
2018-12-17T03:21:07.859Z,77.94
2018-12-17T03:23:37.287Z,77.62
2018-12-17T03:26:06.354Z,76.98
2018-12-17T03:28:35.367Z,78.21
2018-12-17T03:31:04.705Z,78.06
2018-12-17T03:33:33.761Z,77.59
2018-12-17T03:36:02.993Z,77.76
2018-12-17T03:38:32.377Z,76.99
2018-12-17T03:41:01.405Z,77.52
2018-12-17T03:43:30.550Z,77.97
2018-12-17T03:46:00.235Z,77.64
2018-12-17T03:48:29.470Z,77.70
2018-12-17T03:50:58.514Z,77.94
2018-12-17T03:53:27.862Z,76.95
2018-12-17T03:55:56.883Z,77.72
2018-12-17T03:58:25.907Z,77.62
2018-12-17T04:00:55.257Z,77.94
2018-12-17T04:03:24.435Z,77.94
2018-12-17T04:05:53.472Z,77.17
2018-12-17T04:08:22.853Z,78.40
2018-12-17T04:10:51.942Z,77.11
2018-12-17T04:13:21.905Z,77.43
2018-12-17T04:15:51.267Z,77.71
2018-12-17T04:18:20.284Z,77.46
2018-12-17T04:20:49.547Z,78.80
2018-12-17T04:23:18.952Z,77.95
2018-12-17T04:25:48.042Z,77.40
2018-12-17T04:28:17.220Z,77.34
2018-12-17T04:30:46.758Z,77.62
2018-12-17T04:33:15.782Z,77.71
2018-12-17T04:35:44.928Z,77.55
2018-12-17T04:38:14.343Z,77.89
2018-12-17T04:40:43.433Z,77.69
2018-12-17T04:43:12.554Z,77.73
2018-12-17T04:45:42.036Z,76.71
2018-12-17T04:48:11.753Z,77.45
2018-12-17T04:50:41.414Z,77.89
2018-12-17T04:53:10.500Z,77.43
2018-12-17T04:55:39.514Z,77.01
2018-12-17T04:58:09.056Z,78.00
2018-12-17T05:00:38.071Z,77.99
2018-12-17T05:03:07.082Z,78.31
2018-12-17T05:05:36.437Z,77.37
2018-12-17T05:08:05.561Z,77.55
2018-12-17T05:10:35.397Z,78.15
2018-12-17T05:13:04.743Z,78.38
2018-12-17T05:15:33.794Z,78.17
2018-12-17T05:18:02.847Z,78.12
2018-12-17T05:20:32.247Z,78.02
2018-12-17T05:23:01.560Z,78.18
2018-12-17T05:25:30.584Z,79.24
2018-12-17T05:28:00.197Z,79.56
2018-12-17T05:30:30.146Z,78.30
2018-12-17T05:32:59.977Z,78.29
2018-12-17T05:35:29.151Z,79.11
2018-12-17T05:38:00.599Z,78.82
2018-12-17T05:40:30.446Z,78.29
2018-12-17T05:42:59.621Z,78.90
2018-12-17T05:45:29.458Z,77.99
2018-12-17T05:47:58.530Z,78.30
2018-12-17T05:50:27.609Z,78.48
2018-12-17T05:52:56.924Z,78.62
2018-12-17T05:55:25.942Z,79.25
2018-12-17T05:57:55.016Z,78.50
2018-12-17T06:00:25.171Z,78.46
2018-12-17T06:02:54.303Z,78.22
2018-12-17T06:05:23.813Z,78.44
2018-12-17T06:07:53.133Z,78.04
2018-12-17T06:10:22.908Z,77.52
2018-12-17T06:12:52.051Z,77.10
2018-12-17T06:15:21.454Z,77.36
2018-12-17T06:17:50.487Z,78.13
2018-12-17T06:20:19.555Z,78.32
2018-12-17T06:22:48.889Z,78.89
2018-12-17T06:25:17.909Z,77.86
2018-12-17T06:27:46.961Z,78.49
2018-12-17T06:30:16.280Z,78.05
2018-12-17T06:32:45.325Z,78.98
2018-12-17T06:35:14.326Z,78.79
2018-12-17T06:37:43.844Z,78.31
2018-12-17T06:40:12.898Z,78.86
2018-12-17T06:42:42.081Z,77.40
2018-12-17T06:45:11.527Z,78.49
2018-12-17T06:47:40.599Z,78.49
2018-12-17T06:50:09.822Z,77.79
2018-12-17T06:52:39.215Z,78.78
2018-12-17T06:55:08.336Z,78.90
2018-12-17T06:57:37.562Z,77.75
2018-12-17T07:00:08.373Z,78.24
2018-12-17T07:02:37.541Z,77.31
2018-12-17T07:05:06.965Z,77.71
2018-12-17T07:07:39.384Z,77.78
2018-12-17T07:10:08.534Z,77.42
2018-12-17T07:12:37.741Z,77.52
2018-12-17T07:15:07.713Z,77.35
2018-12-17T07:17:36.736Z,77.24
2018-12-17T07:20:06.289Z,77.78
2018-12-17T07:22:35.601Z,77.05
2018-12-17T07:25:05.174Z,77.50
2018-12-17T07:27:34.170Z,78.02
2018-12-17T07:30:03.513Z,77.98
2018-12-17T07:32:32.563Z,78.50
2018-12-17T07:35:01.605Z,78.77
2018-12-17T07:37:31.309Z,77.88
2018-12-17T07:40:00.362Z,77.61
2018-12-17T07:42:29.470Z,78.74
2018-12-17T07:44:58.810Z,78.23
2018-12-17T07:47:27.818Z,78.14
2018-12-17T07:49:56.817Z,78.38
2018-12-17T07:52:26.256Z,77.54
2018-12-17T07:54:55.239Z,77.10
2018-12-17T07:57:24.239Z,77.62
2018-12-17T07:59:56.652Z,77.86
2018-12-17T08:02:24.498Z,77.50
2018-12-17T08:04:53.523Z,77.76
2018-12-17T08:07:22.702Z,78.03
2018-12-17T08:09:51.709Z,77.09
2018-12-17T08:12:21.149Z,76.78
2018-12-17T08:14:50.229Z,77.70
2018-12-17T08:17:19.290Z,77.90
2018-12-17T08:19:48.463Z,77.91
2018-12-17T08:22:17.685Z,78.02
2018-12-17T08:24:46.705Z,76.98
2018-12-17T08:27:15.737Z,77.38
2018-12-17T08:29:44.760Z,77.92
2018-12-17T08:32:13.762Z,78.33
2018-12-17T08:34:42.882Z,78.27
2018-12-17T08:37:12.713Z,78.66
2018-12-17T08:39:41.726Z,77.88
2018-12-17T08:42:11.065Z,77.64
2018-12-17T08:44:40.336Z,76.95
2018-12-17T08:47:09.426Z,77.33
2018-12-17T08:49:38.473Z,77.97
2018-12-17T08:52:07.497Z,77.52
2018-12-17T08:54:36.539Z,77.39
2018-12-17T08:57:06.741Z,76.38
2018-12-17T08:59:35.850Z,77.40
2018-12-17T09:02:05.062Z,77.40
2018-12-17T09:04:34.119Z,77.38
2018-12-17T09:07:03.358Z,76.89
2018-12-17T09:09:32.534Z,76.36
2018-12-17T09:12:01.586Z,76.28
2018-12-17T09:14:30.610Z,75.80
2018-12-17T09:17:00.128Z,76.19
2018-12-17T09:19:29.550Z,75.80
2018-12-17T09:21:58.570Z,76.52
2018-12-17T09:24:27.729Z,76.42
2018-12-17T09:26:57.139Z,76.23
2018-12-17T09:29:26.153Z,76.10
2018-12-17T09:31:55.212Z,75.86
2018-12-17T09:34:24.358Z,76.09
2018-12-17T09:36:53.507Z,76.40
2018-12-17T09:39:22.641Z,76.24
2018-12-17T09:41:52.214Z,76.01
2018-12-17T09:44:21.721Z,76.95
2018-12-17T09:46:51.220Z,76.06
2018-12-17T09:49:20.450Z,76.21
2018-12-17T09:51:49.508Z,76.34
2018-12-17T09:54:18.543Z,76.52
2018-12-17T09:56:48.093Z,75.49
2018-12-17T09:59:17.204Z,75.20
2018-12-17T10:01:48.669Z,75.63
2018-12-17T10:04:17.735Z,75.06
2018-12-17T10:06:46.875Z,76.40
2018-12-17T10:09:16.538Z,75.95
2018-12-17T10:11:45.545Z,76.00
2018-12-17T10:14:14.562Z,75.42
2018-12-17T10:16:43.962Z,75.36
2018-12-17T10:19:12.958Z,76.11
2018-12-17T10:21:41.977Z,75.25
2018-12-17T10:24:11.214Z,74.89
2018-12-17T10:26:40.275Z,75.86
2018-12-17T10:29:09.394Z,75.20
2018-12-17T10:31:38.942Z,76.12
2018-12-17T10:34:07.957Z,75.56
2018-12-17T10:36:37.003Z,76.31
2018-12-17T10:39:08.067Z,75.78
2018-12-17T10:41:38.150Z,75.06
2018-12-17T10:44:09.301Z,74.91
2018-12-17T10:46:38.537Z,74.85
2018-12-17T10:49:07.582Z,75.18
2018-12-17T10:51:36.919Z,74.36
2018-12-17T10:54:05.993Z,74.94
2018-12-17T10:56:35.032Z,75.32
2018-12-17T10:59:04.514Z,75.69
2018-12-17T11:01:38.925Z,74.78
2018-12-17T11:04:16.911Z,75.86
2018-12-17T11:06:45.938Z,75.19
2018-12-17T11:09:15.354Z,74.97
2018-12-17T11:11:44.734Z,75.26
2018-12-17T11:14:14.251Z,74.84
2018-12-17T11:16:43.295Z,74.54
2018-12-17T11:19:12.367Z,74.21
2018-12-17T11:21:41.371Z,75.41
2018-12-17T11:24:10.386Z,75.07
2018-12-17T11:26:39.457Z,74.50
2018-12-17T11:29:09.549Z,75.47
2018-12-17T11:31:41.679Z,74.37
2018-12-17T11:34:10.691Z,74.54
2018-12-17T11:36:39.715Z,74.87
2018-12-17T11:39:10.474Z,74.91
2018-12-17T11:41:39.489Z,74.77
2018-12-17T11:44:08.520Z,74.48
2018-12-17T11:46:37.907Z,74.45
2018-12-17T11:49:06.920Z,74.21
2018-12-17T11:51:35.925Z,74.63
2018-12-17T11:54:05.090Z,73.99
2018-12-17T11:56:46.866Z,74.84
2018-12-17T11:59:15.914Z,74.67
2018-12-17T12:01:46.914Z,74.03
2018-12-17T12:04:15.954Z,74.69
2018-12-17T12:06:45.070Z,73.61
2018-12-17T12:09:18.560Z,74.17
2018-12-17T12:11:48.323Z,73.76
2018-12-17T12:14:17.325Z,74.12
2018-12-17T12:16:46.353Z,73.75
2018-12-17T12:19:15.395Z,74.20
2018-12-17T12:21:44.410Z,73.71
2018-12-17T12:24:13.463Z,74.37
2018-12-17T12:26:42.473Z,74.01
2018-12-17T12:29:11.530Z,73.39
2018-12-17T12:31:41.376Z,74.74
2018-12-17T12:34:10.367Z,74.95
2018-12-17T12:36:39.404Z,75.04
2018-12-17T12:39:08.557Z,75.25
2018-12-17T12:41:39.584Z,74.41
2018-12-17T12:44:08.999Z,74.46
2018-12-17T12:46:38.201Z,73.97
2018-12-17T12:49:08.729Z,74.79
2018-12-17T12:51:37.746Z,74.64
2018-12-17T12:54:07.496Z,74.83
2018-12-17T12:56:36.836Z,74.42
2018-12-17T12:59:06.534Z,75.28
2018-12-17T13:01:35.550Z,74.61
2018-12-17T13:04:04.866Z,75.42
2018-12-17T13:06:33.903Z,74.91
2018-12-17T13:09:03.054Z,74.71
2018-12-17T13:11:32.094Z,74.23
2018-12-17T13:14:02.079Z,74.64
2018-12-17T13:16:31.126Z,74.74
2018-12-17T13:19:00.172Z,74.82
2018-12-17T13:21:29.311Z,73.92
2018-12-17T13:23:58.334Z,74.07
2018-12-17T13:26:27.357Z,74.38
2018-12-17T13:28:56.391Z,73.32
2018-12-17T13:31:25.564Z,74.26
2018-12-17T13:33:55.018Z,73.94
2018-12-17T13:36:24.024Z,73.50
2018-12-17T13:38:53.066Z,73.95
2018-12-17T13:41:22.308Z,73.81
2018-12-17T13:43:51.305Z,73.39
2018-12-17T13:46:21.409Z,74.05
2018-12-17T13:48:50.910Z,74.49
2018-12-17T13:51:26.101Z,73.95
2018-12-17T13:53:59.773Z,74.28
2018-12-17T13:56:29.359Z,73.94
2018-12-17T13:58:58.361Z,74.27
2018-12-17T14:01:27.745Z,74.27
2018-12-17T14:03:56.763Z,74.49
2018-12-17T14:06:25.782Z,75.38
2018-12-17T14:08:55.342Z,74.66
2018-12-17T14:11:24.358Z,75.13
2018-12-17T14:13:53.390Z,75.03
2018-12-17T14:16:26.580Z,74.44
2018-12-17T14:19:01.018Z,75.07
2018-12-17T14:21:35.256Z,75.53
2018-12-17T14:24:04.387Z,74.83
2018-12-17T14:26:33.736Z,74.92
2018-12-17T14:29:02.753Z,74.82
2018-12-17T14:34:02.798Z,74.90
2018-12-17T14:36:31.831Z,74.76
2018-12-17T14:39:00.841Z,75.12
2018-12-17T14:41:29.896Z,74.75
2018-12-17T14:44:03.889Z,75.43
2018-12-17T14:46:37.469Z,75.10
2018-12-17T14:49:06.515Z,75.73
2018-12-17T14:51:36.382Z,75.21
2018-12-17T14:54:05.446Z,74.81
2018-12-17T14:56:34.469Z,74.78
2018-12-17T14:59:03.586Z,76.94
2018-12-17T15:01:35.899Z,76.14
2018-12-17T15:04:04.230Z,75.82
2018-12-17T15:06:33.323Z,76.09
2018-12-17T15:09:02.347Z,75.61
2018-12-17T15:11:32.379Z,75.58
2018-12-17T15:14:02.539Z,75.33
2018-12-17T15:16:31.536Z,75.49
2018-12-17T15:19:00.535Z,75.48
2018-12-17T15:21:29.943Z,75.02
2018-12-17T15:23:58.950Z,75.41
2018-12-17T15:26:28.057Z,75.05
2018-12-17T15:28:57.269Z,75.46
2018-12-17T15:31:27.736Z,75.34
2018-12-17T15:33:57.134Z,75.01
2018-12-17T15:36:26.340Z,75.06
2018-12-17T15:38:56.243Z,74.88
2018-12-17T15:41:25.310Z,75.20
2018-12-17T15:43:54.609Z,75.26
2018-12-17T15:46:23.847Z,75.62
2018-12-17T15:48:52.888Z,75.46
2018-12-17T15:51:22.619Z,74.88
2018-12-17T15:53:51.839Z,74.99
2018-12-17T15:56:21.133Z,75.44
2018-12-17T15:58:53.321Z,75.25
2018-12-17T16:01:23.442Z,74.50
2018-12-17T16:03:52.472Z,75.61
2018-12-17T16:06:21.555Z,76.20
2018-12-17T16:08:50.918Z,76.16
2018-12-17T16:11:19.966Z,76.05
2018-12-17T16:13:49.003Z,76.53
2018-12-17T16:16:18.318Z,75.84
2018-12-17T16:18:47.427Z,75.45
2018-12-17T16:21:16.496Z,75.87
2018-12-17T16:23:45.909Z,75.77
2018-12-17T16:26:15.589Z,75.20
2018-12-17T16:28:45.374Z,76.01
2018-12-17T16:31:14.729Z,75.71
2018-12-17T16:33:43.773Z,75.67
2018-12-17T16:36:14.608Z,75.83
2018-12-17T16:38:44.017Z,75.15
2018-12-17T16:41:17.429Z,76.37
2018-12-17T16:43:46.487Z,76.15
2018-12-17T16:46:15.497Z,76.42
2018-12-17T16:48:44.533Z,76.34
2018-12-17T16:51:13.615Z,75.72
2018-12-17T16:53:42.609Z,76.34
2018-12-17T16:56:11.959Z,75.65
2018-12-17T16:58:41.333Z,75.30
2018-12-17T17:01:10.426Z,75.56
2018-12-17T17:03:39.509Z,75.87
2018-12-17T17:06:08.828Z,76.27
2018-12-17T17:08:37.897Z,75.23
2018-12-17T17:11:07.113Z,75.27
2018-12-17T17:13:36.542Z,76.29
2018-12-17T17:16:05.613Z,75.03
2018-12-17T17:18:35.050Z,75.10
2018-12-17T17:21:04.198Z,76.23
2018-12-17T17:23:33.497Z,75.60
2018-12-17T17:26:02.642Z,75.66
2018-12-17T17:28:31.698Z,75.31
2018-12-17T17:31:00.753Z,74.58
2018-12-17T17:33:30.067Z,75.42
2018-12-17T17:35:59.399Z,74.90
2018-12-17T17:38:28.404Z,75.95
2018-12-17T17:40:58.320Z,75.14
2018-12-17T17:43:28.457Z,75.80
2018-12-17T17:45:57.462Z,76.04
2018-12-17T17:48:26.482Z,76.47
2018-12-17T17:50:55.493Z,76.08
2018-12-17T17:53:24.602Z,75.56
2018-12-17T17:55:53.606Z,76.90
2018-12-17T17:58:22.930Z,77.54
2018-12-17T18:00:52.174Z,76.99
2018-12-17T18:03:21.422Z,77.09
2018-12-17T18:05:50.783Z,77.36
2018-12-17T18:08:19.821Z,76.42
2018-12-17T18:10:48.858Z,76.71
2018-12-17T18:13:18.365Z,76.36
2018-12-17T18:15:47.427Z,76.98
2018-12-17T18:18:16.434Z,77.14
2018-12-17T18:20:45.491Z,77.31
2018-12-17T18:23:14.504Z,77.28
2018-12-17T18:25:43.527Z,77.23
2018-12-17T18:28:13.836Z,77.16
2018-12-17T18:30:42.850Z,76.41
2018-12-17T18:33:11.907Z,76.55
2018-12-17T18:35:40.950Z,76.73
2018-12-17T18:38:10.077Z,76.45
2018-12-17T18:40:39.102Z,76.18
2018-12-17T18:43:08.170Z,76.56
2018-12-17T18:45:37.189Z,77.39
2018-12-17T18:48:06.253Z,77.28
2018-12-17T18:50:35.464Z,77.04
2018-12-17T18:53:04.906Z,76.48
2018-12-17T18:55:34.035Z,76.56
2018-12-17T18:58:03.074Z,77.19
2018-12-17T19:00:32.237Z,76.15
2018-12-17T19:03:01.245Z,76.71
2018-12-17T19:05:30.727Z,76.86
2018-12-17T19:08:00.215Z,75.77
2018-12-17T19:10:33.570Z,76.79
2018-12-17T19:13:03.277Z,75.91
2018-12-17T19:15:32.372Z,76.15
2018-12-17T19:18:01.525Z,76.41
2018-12-17T19:20:30.593Z,76.08
2018-12-17T19:22:59.615Z,76.40
2018-12-17T19:25:28.698Z,76.05
2018-12-17T19:27:57.739Z,74.87
2018-12-17T19:30:27.252Z,75.29
2018-12-17T19:32:57.516Z,75.78
2018-12-17T19:35:26.722Z,76.60
2018-12-17T19:37:56.445Z,76.53
2018-12-17T19:40:25.924Z,75.20
2018-12-17T19:42:55.018Z,75.41
2018-12-17T19:45:24.109Z,75.94
2018-12-17T19:47:53.222Z,75.52
2018-12-17T19:50:22.242Z,75.86
2018-12-17T19:52:51.335Z,75.32
2018-12-17T19:55:20.515Z,75.43
2018-12-17T19:57:49.582Z,75.29
2018-12-17T20:00:18.606Z,74.69
2018-12-17T20:02:48.285Z,75.69
2018-12-17T20:05:17.535Z,75.74
2018-12-17T20:07:47.879Z,74.92
2018-12-17T20:10:24.037Z,75.08
2018-12-17T20:12:53.106Z,75.20
2018-12-17T20:15:22.506Z,75.81
2018-12-17T20:17:52.379Z,75.11
2018-12-17T20:20:21.842Z,75.52
2018-12-17T20:22:51.110Z,75.53
2018-12-17T20:25:20.138Z,75.33
2018-12-17T20:27:49.201Z,75.50
2018-12-17T20:30:18.330Z,74.88
2018-12-17T20:32:53.384Z,74.67
2018-12-17T20:35:18.452Z,75.22
2018-12-17T20:37:47.902Z,76.24
2018-12-17T20:40:17.014Z,75.59
2018-12-17T20:42:46.341Z,74.92
2018-12-17T20:45:15.566Z,75.15
2018-12-17T20:47:45.168Z,75.00
2018-12-17T20:50:14.518Z,75.38
2018-12-17T20:52:43.756Z,75.63
2018-12-17T20:55:14.101Z,75.17
2018-12-17T20:57:43.992Z,76.22
2018-12-17T21:00:13.131Z,75.38
2018-12-17T21:02:42.222Z,75.72
2018-12-17T21:05:11.665Z,76.17
2018-12-17T21:07:40.666Z,75.88
2018-12-17T21:10:10.343Z,75.82
2018-12-17T21:12:39.966Z,75.85
2018-12-17T21:15:09.203Z,76.75
2018-12-17T21:17:39.213Z,76.09
2018-12-17T21:20:08.773Z,76.88
2018-12-17T21:22:37.864Z,76.55
2018-12-17T21:25:07.124Z,75.88
2018-12-17T21:27:36.378Z,75.94
2018-12-17T21:30:06.193Z,76.38
2018-12-17T21:32:35.217Z,75.78
2018-12-17T21:35:05.204Z,75.32
2018-12-17T21:37:35.099Z,75.52
2018-12-17T21:40:05.024Z,75.23
2018-12-17T21:42:34.112Z,75.44
2018-12-17T21:45:03.440Z,75.95
2018-12-17T21:47:32.522Z,75.75
2018-12-17T21:50:01.705Z,75.80
2018-12-17T21:52:30.797Z,75.35
2018-12-17T21:55:01.144Z,75.04
2018-12-17T21:57:30.186Z,75.67
2018-12-17T21:59:59.305Z,74.87
2018-12-17T22:02:28.832Z,75.29
2018-12-17T22:04:57.887Z,74.36
2018-12-17T22:07:27.990Z,75.40
2018-12-17T22:09:57.332Z,75.25
2018-12-17T22:12:26.422Z,74.91
2018-12-17T22:14:55.571Z,75.42
2018-12-17T22:17:25.032Z,75.68
2018-12-17T22:19:54.034Z,74.88
2018-12-17T22:22:23.078Z,75.46
2018-12-17T22:24:52.132Z,75.57
2018-12-17T22:27:21.242Z,76.04
2018-12-17T22:29:50.269Z,74.94
2018-12-17T22:32:19.409Z,75.44
2018-12-17T22:34:49.103Z,76.13
2018-12-17T22:37:18.578Z,76.05
2018-12-17T22:39:47.916Z,76.07
2018-12-17T22:42:16.950Z,75.32
2018-12-17T22:44:45.994Z,76.10
2018-12-17T22:47:15.105Z,75.12
2018-12-17T22:49:44.210Z,75.81
2018-12-17T22:52:13.245Z,75.68
2018-12-17T22:54:42.902Z,75.25
2018-12-17T22:57:11.967Z,75.75
2018-12-17T22:59:40.976Z,75.36
2018-12-17T23:02:11.660Z,75.98
2018-12-17T23:04:40.946Z,75.86
2018-12-17T23:07:10.026Z,76.14
2018-12-17T23:09:50.779Z,75.76
2018-12-17T23:12:30.851Z,75.22
2018-12-17T23:15:11.499Z,76.54
2018-12-17T23:17:42.182Z,76.65
2018-12-17T23:20:11.481Z,76.77
2018-12-17T23:22:44.280Z,75.73
2018-12-17T23:25:16.279Z,75.60
2018-12-17T23:27:51.571Z,75.66
2018-12-17T23:30:23.146Z,76.26
2018-12-17T23:32:52.918Z,75.35
2018-12-17T23:35:22.357Z,76.53
2018-12-17T23:37:51.786Z,76.62
2018-12-17T23:40:21.089Z,75.39
2018-12-17T23:42:50.142Z,75.58
2018-12-17T23:45:20.845Z,74.96
2018-12-17T23:47:49.862Z,74.81
2018-12-17T23:50:19.007Z,74.92
2018-12-17T23:52:48.408Z,75.30
2018-12-17T23:55:17.424Z,75.69
2018-12-17T23:57:46.431Z,75.65
